Sonic Adventure (DX): Time Rankings

Records: Times | Rings | Scores | Races | Bosses | Freestyle
Leaders: Times | Rings | Scores | Races | Bosses | Freestyle | Overall
Rank Player Percent Points Date
1 Gamepro011 99.5% 28 11-22-17
2 Sonicspeedruner 98.4% 87 11-22-17
3 Dashjump 94.7% 297 11-22-17
3 Jawzun 94.7% 297 11-22-17
5 DarkPolarNight 93.7% 351 11-22-17
6 drminus 91.7% 467 11-22-17
7 F-Man 91.5% 477 11-22-17
8 THC98 91.2% 495 11-22-17
9 ike6252 89.2% 606 11-22-17
10 Avento128bits 88.9% 628 11-22-17
11 francisco 88.5% 646 11-22-17
12 ethmar 88.0% 674 11-22-17
13 DarkspinesSonic 88.0% 676 11-22-17
14 Marth 87.9% 681 11-22-17
15 frankoredstrato 86.6% 753 11-22-17
16 TheRealShadnic 85.0% 845 11-22-17
17 chainchumper 84.7% 863 11-22-17
18 Paragod 84.0% 905 11-22-17
19 HyperSonic7701 83.7% 917 11-22-17
20 InferSaime 80.7% 1087 11-22-17
20 xXMegaManXx 80.7% 1087 11-22-17
22 Coolfansonic 80.5% 1101 11-22-17
23 Stefan 79.3% 1170 11-22-17
24 PfoSonic 78.9% 1194 11-22-17
25 bertin 77.1% 1295 11-22-17
26 yoshifan 76.5% 1326 11-22-17
27 Dave Cramer 75.0% 1414 11-22-17
28 RPGnutter 74.7% 1431 11-22-17
29 sonicam 73.1% 1520 11-22-17
30 Cybrax 72.8% 1537 11-22-17
31 Ring Rush 70.4% 1674 11-22-17
32 mike89 69.6% 1720 11-22-17
33 Nim 69.4% 1728 11-22-17
34 NintenDan 69.2% 1741 11-22-17
35 a_moustache 67.7% 1827 11-22-17
36 chaos shadow 66.1% 1917 11-22-17
37 SkyLights 65.7% 1939 11-22-17
38 Combo 64.4% 2014 11-22-17
39 SADXTryHard 62.0% 2147 11-22-17
40 P1 Pause 61.5% 2175 11-22-17
41 Groudon199 59.6% 2286 11-22-17
42 Shadow Jacky 58.9% 2324 11-22-17
43 Game_Complete 58.8% 2330 11-22-17
44 AxlThunder 58.4% 2349 11-22-17
45 VMU Player Banned 57.8% 2388 11-22-17
46 Thorn 57.7% 2394 11-22-17
47 The Knuckles Chao 56.5% 2458 11-22-17
48 SB737 56.5% 2459 11-22-17
49 Chao_Fan 56.0% 2487 11-22-17
50 SadisticMystic 55.9% 2491 11-22-17
51 Mastakirby 55.5% 2515 11-22-17
52 Parax 55.4% 2522 11-22-17
53 OmegaDJ 54.9% 2549 11-22-17
54 LittleBigness 54.7% 2559 11-22-17
55 KinkyCadence 54.7% 2561 11-22-17
56 mauserman 54.5% 2571 11-22-17
57 Psyknux 54.4% 2577 11-22-17
58 Auriman1 54.4% 2578 11-22-17
59 magnum12 54.2% 2589 11-22-17
60 Turbos 53.9% 2607 11-22-17
61 GerbilSoft 53.3% 2638 11-22-17
62 Dekuboy 53.2% 2644 11-22-17
63 Niczur 53.2% 2646 11-22-17
64 GreatStar 53.0% 2660 11-22-17
65 Webber3000 52.6% 2681 11-22-17
66 Hipertails12 51.3% 2751 11-22-17
67 James_Bertolli 49.4% 2861 11-22-17
68 Cream147 49.1% 2880 11-22-17
69 welldooder64 48.4% 2919 11-22-17
70 Skylace 48.2% 2927 11-22-17
71 Quartz 48.0% 2941 11-22-17
72 Omega Rafael Santos 47.7% 2955 11-22-17
73 Psymar 47.7% 2958 11-22-17
74 Diamond 47.5% 2971 11-22-17
75 N 47.4% 2972 11-22-17
76 teamblackarms 46.6% 3017 11-22-17
77 SonicWinDX 46.6% 3019 11-22-17
78 Andrea Ritsu 46.0% 3053 11-22-17
79 buddychaos0415 45.6% 3077 11-22-17
80 SilverSonic 45.1% 3107 11-22-17
81 SilvertheAlmighty 44.5% 3141 11-22-17
82 itsPersonnal 43.9% 3170 11-22-17
83 WeegeeZV 43.9% 3172 11-22-17
84 metanightmare22 43.9% 3174 11-22-17
85 lordmetalsonic 41.6% 3302 11-22-17
86 Arch 41.1% 3331 11-22-17
87 videogamemaster777 40.1% 3387 11-22-17
88 Termon 40.1% 3390 11-22-17
89 supersonicfan 39.8% 3404 11-22-17
90 Drakodan 39.1% 3442 11-22-17
91 LilZero 39.1% 3446 11-22-17
92 paulie9990 38.9% 3456 11-22-17
93 Kanimayo_Jp 38.9% 3458 11-22-17
94 supersonic465 38.8% 3462 11-22-17
95 FuzZerd 38.7% 3469 11-22-17
96 eggFL 38.1% 3501 11-22-17
97 BigAL49 37.9% 3513 11-22-17
98 JamminX42 37.6% 3530 11-22-17
99 danieldude 37.2% 3549 11-22-17
100 Don 37.1% 3559 11-22-17
101 Siavash Tazari 36.5% 3592 11-22-17
102 Fr3nZy 36.0% 3618 11-22-17
103 f0rever_zer0 35.5% 3647 11-22-17
104 Cod4Scopes 35.0% 3675 11-22-17
105 Cyan Ryan 34.9% 3684 11-22-17
106 LinksDarkArrows 34.5% 3704 11-22-17
107 Therio 34.0% 3731 11-22-17
108 elecmouse101 33.6% 3756 11-22-17
109 Austinf 33.6% 3757 11-22-17
110 Staf 33.4% 3769 11-22-17
111 MiStEr_ShAoLiN 33.0% 3787 11-22-17
112 Twilisailor 32.8% 3800 11-22-17
113 videogamer1014 32.5% 3819 11-22-17
114 BrokenArthritis 32.2% 3834 11-22-17
115 Xia 31.9% 3853 11-22-17
116 AC-Tygo 31.7% 3865 11-22-17
117 welshmoose05 31.5% 3874 11-22-17
118 OddCook 30.8% 3912 11-22-17
119 The Great Lord Mick 30.5% 3932 11-22-17
120 Aitamen 30.0% 3960 11-22-17
121 Mcshuggets 29.9% 3964 11-22-17
122 Maxinfamily 29.9% 3965 11-22-17
123 Matt_TY 29.6% 3981 11-22-17
124 dabestgamer 29.3% 3997 11-22-17
125 joecoolgames 29.2% 4005 11-22-17
126 SuperBlitzCraig 28.8% 4029 11-22-17
127 Irregular Zero 28.6% 4040 11-22-17
128 Shadowthegreat 28.0% 4075 11-22-17
129 superjupi 27.9% 4080 11-22-17
129 SuperSonic101 27.9% 4080 11-22-17
131 Rolken 27.5% 4100 11-22-17
132 thewaytodawnnn 27.2% 4115 11-22-17
133 sonamyfan666 27.0% 4128 11-22-17
134 koinu93 26.9% 4137 11-22-17
135 iarebored 26.8% 4141 11-22-17
136 Spinballwizard 26.8% 4142 11-22-17
137 Hunters13 26.7% 4146 11-22-17
138 SaviourDC 26.6% 4152 11-22-17
139 SonicKnuckles 26.5% 4156 11-22-17
140 EngiNerd 25.6% 4210 11-22-17
141 adf 25.5% 4215 11-22-17
142 Megaman EXE565 24.7% 4258 11-22-17
143 The T 24.4% 4274 11-22-17
144 Sonic Singularity 23.9% 4304 11-22-17
145 Platformer 23.6% 4323 11-22-17
146 SeaWolf 23.2% 4342 11-22-17
147 Pokemonmaster888 23.2% 4344 11-22-17
148 timpkmn89 23.2% 4345 11-22-17
149 Swift Hobo 22.6% 4377 11-22-17
150 Sondow 22.4% 4387 11-22-17
151 ModifiedMonkee 22.4% 4392 11-22-17
152 Rickyman48 22.0% 4412 11-22-17
153 KitsuneYamaro 21.8% 4422 11-22-17
154 FoxBoy 21.6% 4436 11-22-17
155 Kogen Player Banned 21.0% 4469 11-22-17
156 TFEC Headshot 21.0% 4470 11-22-17
157 Jerzia 20.7% 4487 11-22-17
158 Starlight Sable 20.1% 4521 11-22-17
159 HyperSonic64 19.8% 4539 11-22-17
160 IsisDazs 19.5% 4553 11-22-17
161 Powerjohn25 19.3% 4563 11-22-17
162 crazy1993 19.3% 4565 11-22-17
163 andres430 19.2% 4569 11-22-17
164 SonicU260 18.3% 4623 11-22-17
165 MPit08 17.8% 4651 11-22-17
166 SonicAD 17.7% 4655 11-22-17
167 Swinkly 17.5% 4667 11-22-17
168 sonicd5 17.2% 4682 11-22-17
169 iSonicKid2K 17.2% 4685 11-22-17
170 dShadow 17.1% 4688 11-22-17
171 Cutiefox 16.6% 4720 11-22-17
172 Chawkk 16.5% 4724 11-22-17
173 Monkeh 16.2% 4740 11-22-17
174 Miles9999 16.1% 4747 11-22-17
175 Crispian 15.9% 4758 11-22-17
176 DaDude 15.4% 4785 11-22-17
177 Drflash55 15.4% 4788 11-22-17
178 Bass 15.1% 4802 11-22-17
179 Cruizer 14.9% 4814 11-22-17
180 Badlex727 14.8% 4817 11-22-17
180 Destroyer121121 14.8% 4817 11-22-17
182 superiorsonic 14.6% 4829 11-22-17
183 neaolas 14.6% 4831 11-22-17
184 zapp 14.5% 4839 11-22-17
185 Yish 14.4% 4843 11-22-17
186 UninspiredUsername 14.3% 4850 11-22-17
187 gamefreak1292 13.9% 4871 11-22-17
188 Cooljay 13.8% 4877 11-22-17
189 Sora_yx 13.3% 4904 11-22-17
190 Chaos_Overlord 13.0% 4924 11-22-17
191 GarnetPrincess 12.7% 4941 11-22-17
192 Valfore 12.5% 4952 11-22-17
193 soniccoloursunleashed 12.1% 4974 11-22-17
194 Dage4Aquatic 12.0% 4977 11-22-17
195 ShinigamiMachine 11.8% 4990 11-22-17
196 booo95 11.5% 5007 11-22-17
197 Sonicsuperstar1 11.3% 5016 11-22-17
198 SirTobbii 11.0% 5032 11-22-17
199 sonicspeed 11.0% 5035 11-22-17
200 Werey 10.9% 5039 11-22-17
201 FocusSight64 10.9% 5043 11-22-17
202 Jua Rever 10.7% 5049 11-22-17
203 Mo Player Banned 10.7% 5051 11-22-17
204 Sithwarrior26 9.7% 5110 11-22-17
205 Venick409 9.6% 5111 11-22-17
206 nman36 9.6% 5112 11-22-17
207 ingx24 9.1% 5140 11-22-17
208 CyberShadow 9.0% 5145 11-22-17
209 dekki1234 9.0% 5149 11-22-17
210 Fozer 8.7% 5163 11-22-17
211 Colomb_30 8.7% 5165 11-22-17
212 Egor305 8.6% 5172 11-22-17
213 Regano1000 8.4% 5184 11-22-17
214 douglas 8.1% 5198 11-22-17
215 1stKirbyever 8.1% 5199 11-22-17
216 nuckrieg 7.9% 5208 11-22-17
217 TimTH 7.8% 5214 11-22-17
218 Brian_pso 7.7% 5221 11-22-17
219 wheatrich 7.6% 5228 11-22-17
220 Th4tN1nj4Turtl3 7.5% 5234 11-22-17
220 Zip 7.5% 5234 11-22-17
222 TakaRikka 7.4% 5239 11-22-17
223 niscool 7.2% 5251 11-22-17
224 Mariosonic15 7.1% 5258 11-22-17
225 ieatatsonic 6.8% 5275 11-22-17
225 Triseena 6.8% 5275 11-22-17
227 MStitomix 6.7% 5278 11-22-17
228 HermitHelmet 6.6% 5281 11-22-17
229 Artie 6.4% 5296 11-22-17
230 Got4n 6.3% 5299 11-22-17
231 Cort_pso 6.3% 5302 11-22-17
232 BlankTH 6.0% 5315 11-22-17
233 Jose_15 6.0% 5318 11-22-17
234 SuperSonicfan9595 5.8% 5331 11-22-17
235 Richied 5.7% 5336 11-22-17
236 Ace747 5.6% 5341 11-22-17
237 HHNNBBHHN 5.4% 5351 11-22-17
238 Aiko 5.3% 5359 11-22-17
239 Paixii 5.3% 5360 11-22-17
240 slade23 5.0% 5372 11-22-17
241 BallzeH 5.0% 5375 11-22-17
241 Mankster101 5.0% 5375 11-22-17
243 ArcticDragon 4.9% 5382 11-22-17
244 FSSRandomvids 4.8% 5383 11-22-17
245 BecauseWarAnvil 4.8% 5384 11-22-17
245 PsyBorg 4.8% 5384 11-22-17
247 Jamixesa 4.8% 5388 11-22-17
248 Nickson98 4.6% 5395 11-22-17
249 Crydio 4.5% 5401 11-22-17
250 TheUltraBlur 4.5% 5405 11-22-17
251 MarewBFN 4.3% 5416 11-22-17
252 tal39h 4.2% 5418 11-22-17
253 ALundstrom10 4.2% 5420 11-22-17
253 stanski 4.2% 5420 11-22-17
255 knuckles_sonic8 4.0% 5433 11-22-17
256 p0ker 3.9% 5434 11-22-17
257 Blue Infamy 3.9% 5436 11-22-17
258 ErrortheCucco 3.7% 5447 11-22-17
259 Rikum22 3.7% 5450 11-22-17
260 sonic1001 3.5% 5458 11-22-17
260 TheChaosEmeraIds 3.5% 5458 11-22-17
262 AJSIV 3.4% 5465 11-22-17
262 syco1098 3.4% 5465 11-22-17
264 Sonic the Hedgehod16 3.3% 5468 11-22-17
265 ASINISTERTACO 3.2% 5475 11-22-17
266 Calfd 3.1% 5479 11-22-17
267 sonicfan9 3.1% 5480 11-22-17
268 MK 3.0% 5488 11-22-17
269 themachoman202 3.0% 5490 11-22-17
270 Fivavoa 2.8% 5499 11-22-17
271 Mr. Jones 2.8% 5501 11-22-17
272 djmat 2.7% 5503 11-22-17
273 arcfx1985 2.7% 5504 11-22-17
273 BlackArmsShadow 2.7% 5504 11-22-17
275 ptorflaxendrosis 2.7% 5506 11-22-17
276 Sonique Hedgehog 2.6% 5508 11-22-17
277 FlandreScarlet9999vr 2.6% 5512 11-22-17
278 Zeldocto 2.5% 5514 11-22-17
279 KaM Mark MaK 2.5% 5516 11-22-17
280 BeeAwwb 2.5% 5518 11-22-17
281 ShadouZaHejjihoggu 2.4% 5524 11-22-17
282 darkstarblaze 2.3% 5529 11-22-17
283 Sarger001 2.2% 5532 11-22-17
284 Sonic The Star 2.2% 5534 11-22-17
285 darkersupershadic 2.2% 5535 11-22-17
286 SpiritDragon1995 2.1% 5536 11-22-17
287 Grady219 2.1% 5540 11-22-17
288 sonic29887 2.1% 5541 11-22-17
289 BioShadow 2.0% 5543 11-22-17
290 shadowblast63 Player Banned 1.9% 5548 11-22-17
291 Jawaah 1.9% 5549 11-22-17
292 Antek 1.8% 5553 11-22-17
293 Klaus 1.8% 5555 11-22-17
294 SkyBon 1.8% 5558 11-22-17
295 Shanekilz 1.4% 5577 11-22-17
296 isaihtb11 1.4% 5579 11-22-17
297 OhNoes! 1.3% 5582 11-22-17
298 zaktu40 1.3% 5583 11-22-17
299 gaara1234 1.3% 5586 11-22-17
300 S-MS32X-S 1.2% 5587 11-22-17
301 MastaToken 1.1% 5593 11-22-17
302 Mister_Slick 1.0% 5598 11-22-17
303 Sonic06Fan 1.0% 5601 11-22-17
304 Rush Hero 1.0% 5602 11-22-17
305 SonicMega167 0.9% 5607 11-22-17
306 oTaiIilLsS 0.9% 5608 11-22-17
307 gamed00d 0.8% 5610 11-22-17
307 SilverK 0.8% 5610 11-22-17
309 Heroes_Hater 0.7% 5618 11-22-17
310 Redd 0.7% 5620 11-22-17
311 Burningskull123 0.6% 5626 11-22-17
312 Sonicontherun 0.4% 5637 11-22-17
313 antiwwe 0.3% 5643 11-22-17
314 Iwannabelink 0.2% 5645 11-22-17
315 Genuine Hedgehog 0.2% 5646 11-22-17
315 SonataSpinDash 0.2% 5646 11-22-17
317 dragondragon18 0.1% 5650 11-22-17
318 SonicK100 0.1% 5652 11-22-17
319 Tyrouble 0.0% 5657 11-22-17
320 LancexExWx 0.0% 5660 11-22-17
320 neji_hyuuga 0.0% 5660 11-22-17
320 Over 0.0% 5660 11-22-17
320 sdj6707 Player Banned 0.0% 5660 11-22-17
320 Tran Sonic Fan Player Banned 0.0% 5660 11-22-17

This page is using the New Data Table System. [FUTURE]

Game ID: 3 | Category ID: 1
Hits: 2,393 | Hits This Month: 5 | DB Calls: 25 | Mem Usage: 5.47 MB | Time: 0.17s | Printable

The Sonic Center v3.9
Copyright 2003-2011 by The Sonic Center Team.